sensor_id;sensor_type;location;lat;lon;timestamp;P1;durP1;ratioP1;P2;durP2;ratioP2
1276;SDS011;631;51.024;13.826;2023-03-23T19:35:41;14.70;;;13.70;;
1276;SDS011;631;51.024;13.826;2023-03-23T19:38:08;15.60;;;14.70;;
1276;SDS011;631;51.024;13.826;2023-03-23T19:40:35;12.80;;;12.10;;
1276;SDS011;631;51.024;13.826;2023-03-23T19:43:01;11.82;;;11.05;;
1276;SDS011;631;51.024;13.826;2023-03-23T19:45:30;13.50;;;12.70;;
1276;SDS011;631;51.024;13.826;2023-03-23T19:47:56;13.13;;;12.43;;
1276;SDS011;631;51.024;13.826;2023-03-23T19:50:23;11.90;;;11.20;;
1276;SDS011;631;51.024;13.826;2023-03-23T19:52:48;13.73;;;12.87;;
1276;SDS011;631;51.024;13.826;2023-03-23T19:55:14;15.27;;;14.27;;
1276;SDS011;631;51.024;13.826;2023-03-23T19:57:40;16.03;;;14.93;;
1276;SDS011;631;51.024;13.826;2023-03-23T20:00:06;14.10;;;13.10;;
1276;SDS011;631;51.024;13.826;2023-03-23T20:02:33;15.50;;;14.50;;
1276;SDS011;631;51.024;13.826;2023-03-23T20:04:58;14.47;;;13.57;;
1276;SDS011;631;51.024;13.826;2023-03-23T20:07:24;14.67;;;13.77;;
1276;SDS011;631;51.024;13.826;2023-03-23T20:09:49;15.10;;;14.10;;
1276;SDS011;631;51.024;13.826;2023-03-23T20:12:16;14.20;;;13.30;;
1276;SDS011;631;51.024;13.826;2023-03-23T20:14:41;16.60;;;15.50;;
1276;SDS011;631;51.024;13.826;2023-03-23T20:17:09;18.63;;;17.23;;
1276;SDS011;631;51.024;13.826;2023-03-23T20:19:36;17.60;;;16.30;;
1276;SDS011;631;51.024;13.826;2023-03-23T20:22:02;17.50;;;16.20;;
1276;SDS011;631;51.024;13.826;2023-03-23T20:24:27;21.03;;;19.33;;
1276;SDS011;631;51.024;13.826;2023-03-23T20:26:53;29.13;;;26.53;;
1276;SDS011;631;51.024;13.826;2023-03-23T20:29:19;27.77;;;25.47;;
1276;SDS011;631;51.024;13.826;2023-03-23T20:31:44;26.90;;;24.57;;
1276;SDS011;631;51.024;13.826;2023-03-23T20:34:11;24.47;;;22.40;;
1276;SDS011;631;51.024;13.826;2023-03-23T20:36:43;20.53;;;18.83;;
1276;SDS011;631;51.024;13.826;2023-03-23T20:39:11;22.40;;;20.50;;
1276;SDS011;631;51.024;13.826;2023-03-23T20:41:39;19.60;;;18.30;;
1276;SDS011;631;51.024;13.826;2023-03-23T20:44:07;20.23;;;18.63;;
1276;SDS011;631;51.024;13.826;2023-03-23T20:46:37;20.27;;;18.67;;
1276;SDS011;631;51.024;13.826;2023-03-23T20:49:03;19.87;;;18.37;;
1276;SDS011;631;51.024;13.826;2023-03-23T20:51:30;20.27;;;18.67;;
1276;SDS011;631;51.024;13.826;2023-03-23T20:53:57;22.70;;;20.93;;
1276;SDS011;631;51.024;13.826;2023-03-23T20:56:23;21.83;;;20.13;;
1276;SDS011;631;51.024;13.826;2023-03-23T20:58:49;26.10;;;23.83;;
1276;SDS011;631;51.024;13.826;2023-03-23T21:01:15;24.37;;;22.20;;
1276;SDS011;631;51.024;13.826;2023-03-23T21:03:41;22.70;;;20.80;;
1276;SDS011;631;51.024;13.826;2023-03-23T21:06:08;21.50;;;19.80;;
1276;SDS011;631;51.024;13.826;2023-03-23T21:08:35;18.00;;;16.77;;
1276;SDS011;631;51.024;13.826;2023-03-23T21:11:03;18.93;;;17.27;;
1276;SDS011;631;51.024;13.826;2023-03-23T21:13:30;18.93;;;17.53;;
1276;SDS011;631;51.024;13.826;2023-03-23T21:15:56;17.50;;;16.30;;
1276;SDS011;631;51.024;13.826;2023-03-23T21:18:24;18.00;;;16.70;;
1276;SDS011;631;51.024;13.826;2023-03-23T21:20:50;19.10;;;17.70;;
1276;SDS011;631;51.024;13.826;2023-03-23T21:23:16;18.30;;;17.00;;
1276;SDS011;631;51.024;13.826;2023-03-23T21:25:43;15.63;;;14.53;;
1276;SDS011;631;51.024;13.826;2023-03-23T21:28:10;17.00;;;15.80;;
1276;SDS011;631;51.024;13.826;2023-03-23T21:30:36;15.57;;;14.47;;
1276;SDS011;631;51.024;13.826;2023-03-23T21:33:06;16.60;;;15.30;;
1276;SDS011;631;51.024;13.826;2023-03-23T21:35:32;15.17;;;14.27;;
1276;SDS011;631;51.024;13.826;2023-03-23T21:37:57;16.50;;;15.30;;
1276;SDS011;631;51.024;13.826;2023-03-23T21:40:23;14.67;;;13.77;;
1276;SDS011;631;51.024;13.826;2023-03-23T21:42:49;16.73;;;15.57;;
1276;SDS011;631;51.024;13.826;2023-03-23T21:45:16;15.57;;;14.57;;
1276;SDS011;631;51.024;13.826;2023-03-23T21:47:49;14.27;;;13.37;;
1276;SDS011;631;51.024;13.826;2023-03-23T21:50:21;15.57;;;14.57;;
1276;SDS011;631;51.024;13.826;2023-03-23T21:52:48;15.17;;;14.20;;
1276;SDS011;631;51.024;13.826;2023-03-23T21:55:15;14.87;;;13.97;;
1276;SDS011;631;51.024;13.826;2023-03-23T21:57:41;15.03;;;14.13;;
1276;SDS011;631;51.024;13.826;2023-03-23T22:00:07;14.83;;;13.83;;
1276;SDS011;631;51.024;13.826;2023-03-23T22:02:38;14.10;;;13.30;;
1276;SDS011;631;51.024;13.826;2023-03-23T22:05:04;13.43;;;12.63;;
1276;SDS011;631;51.024;13.826;2023-03-23T22:07:30;13.47;;;12.77;;
1276;SDS011;631;51.024;13.826;2023-03-23T22:09:57;14.03;;;13.20;;
1276;SDS011;631;51.024;13.826;2023-03-23T22:12:23;12.67;;;11.97;;
1276;SDS011;631;51.024;13.826;2023-03-23T22:14:49;12.50;;;11.80;;
1276;SDS011;631;51.024;13.826;2023-03-23T22:17:15;12.53;;;11.83;;
1276;SDS011;631;51.024;13.826;2023-03-23T22:19:41;11.93;;;11.33;;
1276;SDS011;631;51.024;13.826;2023-03-23T22:22:07;12.63;;;12.03;;
1276;SDS011;631;51.024;13.826;2023-03-23T22:24:33;12.40;;;11.77;;
1276;SDS011;631;51.024;13.826;2023-03-23T22:26:59;12.10;;;11.30;;
1276;SDS011;631;51.024;13.826;2023-03-23T22:29:25;12.57;;;11.97;;
1276;SDS011;631;51.024;13.826;2023-03-23T22:31:50;12.13;;;11.43;;
1276;SDS011;631;51.024;13.826;2023-03-23T22:34:16;11.97;;;11.33;;
1276;SDS011;631;51.024;13.826;2023-03-23T22:36:42;12.03;;;11.43;;
1276;SDS011;631;51.024;13.826;2023-03-23T22:39:08;11.17;;;10.60;;
1276;SDS011;631;51.024;13.826;2023-03-23T22:41:35;11.90;;;11.30;;
1276;SDS011;631;51.024;13.826;2023-03-23T22:44:03;12.13;;;11.53;;
1276;SDS011;631;51.024;13.826;2023-03-23T22:46:31;12.27;;;11.67;;
1276;SDS011;631;51.024;13.826;2023-03-23T22:48:57;12.60;;;12.00;;
1276;SDS011;631;51.024;13.826;2023-03-23T22:51:23;13.33;;;12.53;;
1276;SDS011;631;51.024;13.826;2023-03-23T22:53:49;13.00;;;12.20;;
1276;SDS011;631;51.024;13.826;2023-03-23T22:56:15;13.13;;;12.43;;
1276;SDS011;631;51.024;13.826;2023-03-23T22:58:41;13.37;;;12.67;;
1276;SDS011;631;51.024;13.826;2023-03-23T23:01:10;13.47;;;12.77;;
1276;SDS011;631;51.024;13.826;2023-03-23T23:03:37;12.60;;;12.00;;
1276;SDS011;631;51.024;13.826;2023-03-23T23:06:04;13.07;;;12.37;;
1276;SDS011;631;51.024;13.826;2023-03-23T23:08:30;12.67;;;12.07;;
1276;SDS011;631;51.024;13.826;2023-03-23T23:10:58;12.77;;;12.13;;
1276;SDS011;631;51.024;13.826;2023-03-23T23:13:26;13.27;;;12.60;;
1276;SDS011;631;51.024;13.826;2023-03-23T23:15:53;12.77;;;12.07;;
1276;SDS011;631;51.024;13.826;2023-03-23T23:18:20;13.37;;;12.57;;
1276;SDS011;631;51.024;13.826;2023-03-23T23:20:50;11.87;;;11.27;;
1276;SDS011;631;51.024;13.826;2023-03-23T23:23:18;12.40;;;11.80;;
1276;SDS011;631;51.024;13.826;2023-03-23T23:25:45;11.90;;;11.30;;
1276;SDS011;631;51.024;13.826;2023-03-23T23:28:11;13.10;;;12.40;;
1276;SDS011;631;51.024;13.826;2023-03-23T23:30:37;12.47;;;11.77;;
1276;SDS011;631;51.024;13.826;2023-03-23T23:33:03;12.80;;;12.10;;
1276;SDS011;631;51.024;13.826;2023-03-23T23:35:31;12.20;;;11.60;;
1276;SDS011;631;51.024;13.826;2023-03-23T23:37:58;12.73;;;12.03;;
1276;SDS011;631;51.024;13.826;2023-03-23T23:40:24;12.50;;;11.70;;
1276;SDS011;631;51.024;13.826;2023-03-23T23:42:50;12.43;;;11.83;;
1276;SDS011;631;51.024;13.826;2023-03-23T23:45:16;12.53;;;11.93;;
1276;SDS011;631;51.024;13.826;2023-03-23T23:47:43;11.87;;;11.33;;
1276;SDS011;631;51.024;13.826;2023-03-23T23:50:10;11.93;;;11.43;;
1276;SDS011;631;51.024;13.826;2023-03-23T23:52:37;12.30;;;11.70;;
1276;SDS011;631;51.024;13.826;2023-03-23T23:55:04;12.73;;;11.93;;
1276;SDS011;631;51.024;13.826;2023-03-23T23:57:32;12.53;;;11.83;;
1276;SDS011;631;51.024;13.826;2023-03-23T23:59:57;12.00;;;11.40;;
